createdAt,value
2016-12-06T00:00:45.394Z,0
2016-12-06T00:01:45.046Z,0
2016-12-06T00:02:45.008Z,0
2016-12-06T00:03:44.989Z,0
2016-12-06T00:04:45.313Z,0
2016-12-06T00:05:45.458Z,0
2016-12-06T00:06:44.912Z,0
2016-12-06T00:07:45.210Z,0
2016-12-06T00:08:44.862Z,0
2016-12-06T00:09:44.837Z,0
2016-12-06T00:10:44.816Z,0
2016-12-06T00:11:44.790Z,0
2016-12-06T00:12:44.764Z,0
2016-12-06T00:13:44.731Z,0
2016-12-06T00:14:44.719Z,0
2016-12-06T00:15:44.686Z,0
2016-12-06T00:16:44.974Z,0
2016-12-06T00:17:44.952Z,0
2016-12-06T00:18:44.615Z,0
2016-12-06T00:19:44.900Z,0
2016-12-06T00:20:44.564Z,0
2016-12-06T00:21:44.534Z,0
2016-12-06T00:22:44.512Z,0
2016-12-06T00:23:44.490Z,0
2016-12-06T00:24:44.467Z,0
2016-12-06T00:25:44.437Z,0
2016-12-06T00:26:44.416Z,0
2016-12-06T00:27:44.704Z,0
2016-12-06T00:28:44.379Z,0
2016-12-06T00:29:44.341Z,0
2016-12-06T00:30:44.342Z,0
2016-12-06T00:31:44.923Z,0
2016-12-06T00:32:44.267Z,0
2016-12-06T00:33:44.237Z,0
2016-12-06T00:34:44.212Z,0
2016-12-06T00:35:44.502Z,0
2016-12-06T00:36:44.508Z,0
2016-12-06T00:37:44.139Z,0
2016-12-06T00:38:44.122Z,0
2016-12-06T00:39:44.452Z,0
2016-12-06T00:40:44.065Z,0
2016-12-06T00:41:44.042Z,0
2016-12-06T00:42:44.013Z,0
2016-12-06T00:43:44.303Z,0
2016-12-06T00:44:44.275Z,0
2016-12-06T00:45:43.938Z,0
2016-12-06T00:46:43.919Z,0
2016-12-06T00:47:43.892Z,0
2016-12-06T00:48:43.862Z,0
2016-12-06T00:49:43.845Z,0
2016-12-06T00:50:44.437Z,0
2016-12-06T00:51:43.794Z,0
2016-12-06T00:52:43.766Z,0
2016-12-06T00:53:43.736Z,0
2016-12-06T00:54:43.727Z,0
2016-12-06T00:55:43.683Z,0
2016-12-06T00:56:43.973Z,0
2016-12-06T00:57:43.643Z,0
2016-12-06T00:58:43.969Z,0
2016-12-06T00:59:43.591Z,0
2016-12-06T01:00:43.562Z,0
2016-12-06T01:01:43.859Z,0
2016-12-06T01:02:43.510Z,0
2016-12-06T01:03:43.490Z,0
2016-12-06T01:04:43.459Z,0
2016-12-06T01:05:43.432Z,0
2016-12-06T01:06:43.428Z,0
2016-12-06T01:07:43.737Z,0
2016-12-06T01:08:43.688Z,0
2016-12-06T01:09:43.658Z,0
2016-12-06T01:10:43.629Z,0
2016-12-06T01:11:43.281Z,0
2016-12-06T01:12:43.270Z,0
2016-12-06T01:13:43.238Z,0
2016-12-06T01:14:43.211Z,0
2016-12-06T01:15:43.190Z,0
2016-12-06T01:16:43.157Z,0
2016-12-06T01:17:43.149Z,0
2016-12-06T01:18:43.114Z,0
2016-12-06T01:19:43.405Z,0
2016-12-06T01:20:43.693Z,0
2016-12-06T01:21:43.360Z,0
2016-12-06T01:22:43.340Z,0
2016-12-06T01:23:42.996Z,0
2016-12-06T01:24:42.958Z,0
2016-12-06T01:25:42.938Z,0
2016-12-06T01:26:42.911Z,0
2016-12-06T01:27:42.894Z,0
2016-12-06T01:28:43.178Z,0
2016-12-06T01:29:43.459Z,0
2016-12-06T01:30:43.442Z,0
2016-12-06T01:31:42.784Z,0
2016-12-06T01:32:42.763Z,0
2016-12-06T01:33:42.739Z,0
2016-12-06T01:34:42.736Z,0
2016-12-06T01:35:43.024Z,0
2016-12-06T01:36:42.689Z,0
2016-12-06T01:37:42.985Z,0
2016-12-06T01:38:42.931Z,0
2016-12-06T01:39:42.592Z,0
2016-12-06T01:40:42.567Z,0
2016-12-06T01:41:42.889Z,0
2016-12-06T01:42:42.827Z,0
2016-12-06T01:43:42.489Z,0
2016-12-06T01:44:42.494Z,0
2016-12-06T01:45:42.449Z,0
2016-12-06T01:46:42.419Z,0
2016-12-06T01:47:42.386Z,0
2016-12-06T01:48:42.363Z,0
2016-12-06T01:49:42.660Z,0
2016-12-06T01:50:42.316Z,0
2016-12-06T01:51:42.601Z,0
2016-12-06T01:52:42.300Z,0
2016-12-06T01:53:42.243Z,0
2016-12-06T01:54:42.215Z,0
2016-12-06T01:55:42.504Z,0
2016-12-06T01:56:42.164Z,0
2016-12-06T01:57:42.453Z,0
2016-12-06T01:58:42.115Z,0
2016-12-06T01:59:42.091Z,0
2016-12-06T02:00:42.371Z,0
2016-12-06T02:01:42.035Z,0
2016-12-06T02:02:42.016Z,0
2016-12-06T02:03:42.304Z,0
2016-12-06T02:04:41.962Z,0
2016-12-06T02:05:42.663Z,0
2016-12-06T02:06:41.915Z,0
2016-12-06T02:07:41.890Z,0
2016-12-06T02:08:42.184Z,0
2016-12-06T02:09:41.839Z,0
2016-12-06T02:10:41.857Z,0
2016-12-06T02:11:41.789Z,0
2016-12-06T02:12:42.092Z,0
2016-12-06T02:13:41.741Z,0
2016-12-06T02:14:41.716Z,0
2016-12-06T02:15:42.000Z,0
2016-12-06T02:16:41.665Z,0
2016-12-06T02:17:41.957Z,0
2016-12-06T02:18:41.935Z,0
2016-12-06T02:19:41.586Z,0
2016-12-06T02:20:41.566Z,0
2016-12-06T02:21:41.536Z,0
2016-12-06T02:22:41.516Z,0
2016-12-06T02:23:41.808Z,0
2016-12-06T02:24:41.485Z,0
2016-12-06T02:25:41.438Z,0
2016-12-06T02:26:41.728Z,0
2016-12-06T02:27:41.384Z,0
2016-12-06T02:28:41.364Z,0
2016-12-06T02:29:41.340Z,0
2016-12-06T02:30:41.316Z,0
2016-12-06T02:31:41.295Z,0
2016-12-06T02:32:41.260Z,0
2016-12-06T02:33:41.239Z,0
2016-12-06T02:34:41.524Z,0
2016-12-06T02:35:41.499Z,0
2016-12-06T02:36:41.171Z,0
2016-12-06T02:37:41.141Z,0
2016-12-06T02:38:41.433Z,0
2016-12-06T02:39:41.091Z,0
2016-12-06T02:40:41.065Z,0
2016-12-06T02:41:41.036Z,0
2016-12-06T02:42:41.015Z,0
2016-12-06T02:43:41.026Z,0
2016-12-06T02:44:40.990Z,0
2016-12-06T02:45:40.951Z,0
2016-12-06T02:46:41.236Z,0
2016-12-06T02:47:40.887Z,0
2016-12-06T02:48:40.864Z,0
2016-12-06T02:49:41.184Z,0
2016-12-06T02:50:41.138Z,0
2016-12-06T02:51:41.105Z,0
2016-12-06T02:52:41.073Z,0
2016-12-06T02:53:41.046Z,0
2016-12-06T02:54:40.718Z,0
2016-12-06T02:55:40.998Z,0
2016-12-06T02:56:40.656Z,0
2016-12-06T02:57:40.634Z,0
2016-12-06T02:58:40.617Z,0
2016-12-06T02:59:40.905Z,0
2016-12-06T03:00:40.564Z,0
2016-12-06T03:01:40.848Z,0
2016-12-06T03:02:40.512Z,0
2016-12-06T03:03:40.481Z,0
2016-12-06T03:04:40.460Z,0
2016-12-06T03:05:40.433Z,0
2016-12-06T03:06:40.754Z,0
2016-12-06T03:07:40.709Z,0
2016-12-06T03:08:40.358Z,0
2016-12-06T03:09:40.336Z,0
2016-12-06T03:10:40.646Z,0
2016-12-06T03:11:40.609Z,0
2016-12-06T03:12:40.589Z,0
2016-12-06T03:13:40.546Z,0
2016-12-06T03:14:40.210Z,0
2016-12-06T03:15:40.499Z,0
2016-12-06T03:16:40.166Z,0
2016-12-06T03:17:40.134Z,0
2016-12-06T03:18:40.117Z,0
2016-12-06T03:19:40.388Z,0
2016-12-06T03:20:40.370Z,0
2016-12-06T03:21:40.029Z,0
2016-12-06T03:22:40.006Z,0
2016-12-06T03:23:39.983Z,0
2016-12-06T03:24:39.958Z,0
2016-12-06T03:25:39.927Z,0
2016-12-06T03:26:40.229Z,0
2016-12-06T03:27:40.192Z,0
2016-12-06T03:28:40.174Z,0
2016-12-06T03:29:39.828Z,0
2016-12-06T03:30:39.828Z,0
2016-12-06T03:31:40.086Z,0
2016-12-06T03:32:39.766Z,0
2016-12-06T03:33:39.726Z,0
2016-12-06T03:34:39.712Z,0
2016-12-06T03:35:39.673Z,0
2016-12-06T03:36:39.663Z,0
2016-12-06T03:37:40.251Z,0
2016-12-06T03:38:39.621Z,0
2016-12-06T03:39:39.897Z,0
2016-12-06T03:40:39.579Z,0
2016-12-06T03:41:39.558Z,0
2016-12-06T03:42:39.499Z,0
2016-12-06T03:43:39.793Z,0
2016-12-06T03:44:39.450Z,0
2016-12-06T03:45:39.463Z,0
2016-12-06T03:46:39.405Z,0
2016-12-06T03:47:39.687Z,0
2016-12-06T03:48:39.667Z,0
2016-12-06T03:49:39.637Z,0
2016-12-06T03:50:39.305Z,0
2016-12-06T03:51:39.273Z,0
2016-12-06T03:52:39.581Z,0
2016-12-06T03:53:39.229Z,0
2016-12-06T03:54:39.199Z,0
2016-12-06T03:55:39.169Z,0
2016-12-06T03:56:39.782Z,0
2016-12-06T03:57:39.133Z,0
2016-12-06T03:58:39.412Z,0
2016-12-06T03:59:39.078Z,0
2016-12-06T04:00:39.674Z,0
2016-12-06T04:01:39.024Z,0
2016-12-06T04:02:39.004Z,0
2016-12-06T04:03:39.286Z,0
2016-12-06T04:04:39.273Z,0
2016-12-06T04:05:39.230Z,0
2016-12-06T04:06:38.897Z,0
2016-12-06T04:07:38.875Z,0
2016-12-06T04:08:39.163Z,0
2016-12-06T04:09:39.548Z,0
2016-12-06T04:10:39.443Z,0
2016-12-06T04:11:39.121Z,0
2016-12-06T04:12:39.067Z,0
2016-12-06T04:13:39.039Z,0
2016-12-06T04:14:39.002Z,0
2016-12-06T04:15:38.670Z,0
2016-12-06T04:16:38.643Z,0
2016-12-06T04:17:39.268Z,0
2016-12-06T04:18:38.908Z,0
2016-12-06T04:19:38.570Z,0
2016-12-06T04:20:38.856Z,0
2016-12-06T04:21:38.514Z,0
2016-12-06T04:22:39.110Z,0
2016-12-06T04:23:38.790Z,0
2016-12-06T04:24:38.753Z,0
2016-12-06T04:25:38.409Z,0
2016-12-06T04:26:38.394Z,0
2016-12-06T04:27:38.374Z,0
2016-12-06T04:28:38.651Z,0
2016-12-06T04:29:38.320Z,0
2016-12-06T04:30:38.603Z,0
2016-12-06T04:31:38.585Z,0
2016-12-06T04:32:38.242Z,0
2016-12-06T04:33:38.223Z,0
2016-12-06T04:34:38.498Z,0
2016-12-06T04:35:38.161Z,0
2016-12-06T04:36:38.452Z,0
2016-12-06T04:37:38.423Z,0
2016-12-06T04:38:38.090Z,0
2016-12-06T04:39:38.371Z,0
2016-12-06T04:40:38.037Z,0
2016-12-06T04:41:38.019Z,0
2016-12-06T04:42:37.981Z,0
2016-12-06T04:43:37.978Z,0
2016-12-06T04:44:37.936Z,0
2016-12-06T04:45:37.908Z,0
2016-12-06T04:46:37.888Z,0
2016-12-06T04:47:38.482Z,0
2016-12-06T04:48:37.828Z,0
2016-12-06T04:49:37.811Z,0
2016-12-06T04:50:38.103Z,0
2016-12-06T04:51:38.116Z,0
2016-12-06T04:52:38.048Z,0
2016-12-06T04:53:38.032Z,0
2016-12-06T04:54:37.696Z,0
2016-12-06T04:55:38.285Z,0
2016-12-06T04:56:37.636Z,0
2016-12-06T04:57:37.920Z,0
2016-12-06T04:58:37.896Z,0
2016-12-06T04:59:37.553Z,0
2016-12-06T05:00:37.530Z,0
2016-12-06T05:01:37.511Z,0
2016-12-06T05:02:37.527Z,0
2016-12-06T05:03:37.452Z,0
2016-12-06T05:04:37.451Z,0
2016-12-06T05:05:37.403Z,0
2016-12-06T05:06:37.378Z,0
2016-12-06T05:07:37.667Z,0
2016-12-06T05:08:37.325Z,0
2016-12-06T05:09:37.299Z,0
2016-12-06T05:10:37.273Z,0
2016-12-06T05:11:37.563Z,0
2016-12-06T05:12:37.535Z,0
2016-12-06T05:13:37.198Z,0
2016-12-06T05:14:37.488Z,0
2016-12-06T05:15:37.155Z,0
2016-12-06T05:16:37.123Z,0
2016-12-06T05:17:37.095Z,0
2016-12-06T05:18:37.069Z,0
2016-12-06T05:19:37.042Z,0
2016-12-06T05:20:37.019Z,0
2016-12-06T05:21:36.995Z,0
2016-12-06T05:22:36.968Z,0
2016-12-06T05:23:36.940Z,0
2016-12-06T05:24:36.920Z,0
2016-12-06T05:25:36.893Z,0
2016-12-06T05:26:37.192Z,0
2016-12-06T05:27:36.893Z,0
2016-12-06T05:28:36.821Z,0
2016-12-06T05:29:36.784Z,0
2016-12-06T05:30:36.768Z,0
2016-12-06T05:31:36.735Z,0
2016-12-06T05:32:37.025Z,0
2016-12-06T05:33:36.687Z,0
2016-12-06T05:34:36.664Z,0
2016-12-06T05:35:36.642Z,0
2016-12-06T05:36:36.615Z,0
2016-12-06T05:37:36.894Z,0
2016-12-06T05:38:36.564Z,0
2016-12-06T05:39:36.857Z,0
2016-12-06T05:40:36.514Z,0
2016-12-06T05:41:36.479Z,0
2016-12-06T05:42:36.460Z,0
2016-12-06T05:43:36.745Z,0
2016-12-06T05:44:36.722Z,0
2016-12-06T05:45:36.692Z,0
2016-12-06T05:46:36.670Z,0
2016-12-06T05:47:36.333Z,0
2016-12-06T05:48:36.614Z,0
2016-12-06T05:49:36.287Z,0
2016-12-06T05:50:36.255Z,0
2016-12-06T05:51:36.539Z,0
2016-12-06T05:52:36.201Z,0
2016-12-06T05:53:36.491Z,0
2016-12-06T05:54:36.158Z,0
2016-12-06T05:55:36.133Z,0
2016-12-06T05:56:36.417Z,0
2016-12-06T05:57:36.391Z,0
2016-12-06T05:58:36.369Z,0
2016-12-06T05:59:36.020Z,0
2016-12-06T06:00:36.316Z,0
2016-12-06T06:01:35.977Z,0
2016-12-06T06:02:35.950Z,0
2016-12-06T06:03:35.919Z,0
2016-12-06T06:04:36.223Z,0
2016-12-06T06:05:35.906Z,0
2016-12-06T06:06:36.694Z,0
2016-12-06T06:07:35.821Z,0
2016-12-06T06:08:36.118Z,0
2016-12-06T06:09:35.770Z,0
2016-12-06T06:10:35.743Z,0
2016-12-06T06:11:36.350Z,0
2016-12-06T06:12:35.725Z,0
2016-12-06T06:13:35.976Z,0
2016-12-06T06:14:35.644Z,0
2016-12-06T06:15:35.617Z,0
2016-12-06T06:16:35.597Z,0
2016-12-06T06:17:35.559Z,0
2016-12-06T06:18:35.850Z,0
2016-12-06T06:19:35.827Z,0
2016-12-06T06:20:35.513Z,0
2016-12-06T06:21:35.461Z,0
2016-12-06T06:22:35.462Z,0
2016-12-06T06:23:35.732Z,0
2016-12-06T06:24:36.364Z,0
2016-12-06T06:25:35.708Z,0
2016-12-06T06:26:35.657Z,0
2016-12-06T06:27:35.632Z,0
2016-12-06T06:28:35.599Z,0
2016-12-06T06:29:35.259Z,0
2016-12-06T06:30:35.549Z,0
2016-12-06T06:31:35.226Z,0
2016-12-06T06:32:35.576Z,0
2016-12-06T06:33:35.476Z,0
2016-12-06T06:34:35.464Z,0
2016-12-06T06:35:35.110Z,0
2016-12-06T06:36:35.404Z,0
2016-12-06T06:37:35.359Z,0
2016-12-06T06:38:35.360Z,0
2016-12-06T06:39:35.313Z,0
2016-12-06T06:40:34.969Z,0
2016-12-06T06:41:34.950Z,0
2016-12-06T06:42:34.922Z,0
2016-12-06T06:43:35.219Z,0
2016-12-06T06:44:34.865Z,0
2016-12-06T06:45:35.495Z,0
2016-12-06T06:46:35.132Z,0
2016-12-06T06:47:34.789Z,0
2016-12-06T06:48:34.770Z,0
2016-12-06T06:49:35.050Z,0
2016-12-06T06:50:35.025Z,0
2016-12-06T06:51:34.694Z,0
2016-12-06T06:52:34.664Z,0
2016-12-06T06:53:35.265Z,0
2016-12-06T06:54:34.616Z,0
2016-12-06T06:55:34.586Z,0
2016-12-06T06:56:34.563Z,0
2016-12-06T06:57:34.538Z,0
2016-12-06T06:58:34.520Z,0
2016-12-06T06:59:34.500Z,0
2016-12-06T07:00:34.474Z,0
2016-12-06T07:01:34.491Z,0
2016-12-06T07:02:34.725Z,0
2016-12-06T07:03:34.722Z,0
2016-12-06T07:04:34.664Z,0
2016-12-06T07:05:34.978Z,0
2016-12-06T07:06:34.618Z,0
2016-12-06T07:07:34.278Z,0
2016-12-06T07:08:34.252Z,0
2016-12-06T07:09:34.227Z,0
2016-12-06T07:10:34.199Z,0
2016-12-06T07:11:34.174Z,0
2016-12-06T07:12:34.152Z,0
2016-12-06T07:13:34.150Z,0
2016-12-06T07:14:34.106Z,0
2016-12-06T07:15:34.082Z,0
2016-12-06T07:16:34.052Z,0
2016-12-06T07:17:34.019Z,5
2016-12-06T07:18:33.996Z,5
2016-12-06T07:19:34.290Z,5
2016-12-06T07:20:34.567Z,5
2016-12-06T07:21:34.240Z,5
2016-12-06T07:22:34.208Z,5
2016-12-06T07:23:34.490Z,5
2016-12-06T07:24:33.845Z,5
2016-12-06T07:25:34.135Z,5
2016-12-06T07:26:34.104Z,5
2016-12-06T07:27:33.775Z,5
2016-12-06T07:28:34.373Z,10
2016-12-06T07:29:33.714Z,10
2016-12-06T07:30:33.683Z,10
2016-12-06T07:31:33.669Z,10
2016-12-06T07:32:33.947Z,10
2016-12-06T07:33:33.920Z,10
2016-12-06T07:34:33.585Z,10
2016-12-06T07:35:33.875Z,15
2016-12-06T07:36:33.530Z,15
2016-12-06T07:37:33.825Z,15
2016-12-06T07:38:33.487Z,15
2016-12-06T07:39:33.767Z,15
2016-12-06T07:40:33.770Z,15
2016-12-06T07:41:34.788Z,15
2016-12-06T07:42:33.708Z,20
2016-12-06T07:43:33.678Z,20
2016-12-06T07:44:33.331Z,20
2016-12-06T07:45:33.953Z,20
2016-12-06T07:46:33.283Z,20
2016-12-06T07:47:33.256Z,20
2016-12-06T07:48:33.550Z,25
2016-12-06T07:49:33.208Z,25
2016-12-06T07:50:33.800Z,25
2016-12-06T07:51:33.147Z,25
2016-12-06T07:52:33.121Z,25
2016-12-06T07:53:33.114Z,25
2016-12-06T07:54:33.076Z,30
2016-12-06T07:55:33.052Z,30
2016-12-06T07:56:33.032Z,30
2016-12-06T07:57:32.997Z,30
2016-12-06T07:58:32.976Z,30
2016-12-06T07:59:32.946Z,30
2016-12-06T08:00:32.928Z,30
2016-12-06T08:01:32.906Z,35
2016-12-06T08:02:32.875Z,35
2016-12-06T08:03:32.851Z,35
2016-12-06T08:04:32.825Z,35
2016-12-06T08:05:33.104Z,35
2016-12-06T08:06:32.973Z,35
2016-12-06T08:07:33.060Z,40
2016-12-06T08:08:33.044Z,40
2016-12-06T08:09:32.705Z,40
2016-12-06T08:10:33.356Z,40
2016-12-06T08:11:32.979Z,40
2016-12-06T08:12:32.938Z,40
2016-12-06T08:13:33.246Z,45
2016-12-06T08:14:32.589Z,45
2016-12-06T08:15:32.549Z,45
2016-12-06T08:16:32.526Z,45
2016-12-06T08:17:32.492Z,45
2016-12-06T08:18:32.476Z,45
2016-12-06T08:19:32.443Z,45
2016-12-06T08:20:33.051Z,50
2016-12-06T08:21:32.401Z,50
2016-12-06T08:22:32.741Z,50
2016-12-06T08:23:32.348Z,50
2016-12-06T08:24:32.347Z,50
2016-12-06T08:25:32.617Z,50
2016-12-06T08:26:32.279Z,55
2016-12-06T08:27:32.563Z,55
2016-12-06T08:28:32.223Z,55
2016-12-06T08:29:32.205Z,55
2016-12-06T08:30:32.175Z,55
2016-12-06T08:31:32.784Z,55
2016-12-06T08:32:32.442Z,55
2016-12-06T08:33:32.410Z,60
2016-12-06T08:34:32.710Z,60
2016-12-06T08:35:32.056Z,60
2016-12-06T08:36:32.027Z,60
2016-12-06T08:37:32.007Z,60
2016-12-06T08:38:32.291Z,60
2016-12-06T08:39:31.946Z,60
2016-12-06T08:40:31.931Z,65
2016-12-06T08:41:31.952Z,65
2016-12-06T08:42:31.882Z,65
2016-12-06T08:43:31.846Z,65
2016-12-06T08:44:31.831Z,65
2016-12-06T08:45:31.804Z,65
2016-12-06T08:46:32.095Z,65
2016-12-06T08:47:31.751Z,70
2016-12-06T08:48:31.732Z,70
2016-12-06T08:49:31.710Z,70
2016-12-06T08:50:31.685Z,70
2016-12-06T08:51:31.658Z,70
2016-12-06T08:52:31.967Z,70
2016-12-06T08:53:31.612Z,70
2016-12-06T08:54:31.582Z,75
2016-12-06T08:55:31.560Z,75
2016-12-06T08:56:31.853Z,75
2016-12-06T08:57:31.511Z,75
2016-12-06T08:58:31.488Z,75
2016-12-06T08:59:31.778Z,75
2016-12-06T09:00:31.442Z,75
2016-12-06T09:01:31.419Z,75
2016-12-06T09:02:31.397Z,75
2016-12-06T09:03:31.373Z,80
2016-12-06T09:04:31.355Z,80
2016-12-06T09:05:31.947Z,80
2016-12-06T09:06:31.293Z,80
2016-12-06T09:07:31.275Z,80
2016-12-06T09:08:31.250Z,80
2016-12-06T09:09:31.230Z,80
2016-12-06T09:10:31.215Z,80
2016-12-06T09:11:31.181Z,85
2016-12-06T09:12:31.472Z,85
2016-12-06T09:13:31.131Z,85
2016-12-06T09:14:31.739Z,85
2016-12-06T09:15:31.082Z,85
2016-12-06T09:16:31.058Z,85
2016-12-06T09:17:31.032Z,90
2016-12-06T09:18:31.335Z,90
2016-12-06T09:19:31.311Z,90
2016-12-06T09:20:31.631Z,90
2016-12-06T09:21:31.272Z,95
2016-12-06T09:22:31.277Z,95
2016-12-06T09:23:30.901Z,95
2016-12-06T09:24:31.195Z,100
2016-12-06T09:25:30.860Z,100
2016-12-06T09:26:30.826Z,100
2016-12-06T09:27:31.427Z,100
2016-12-06T09:28:30.782Z,100
2016-12-06T09:29:31.073Z,115
2016-12-06T09:30:30.737Z,160
2016-12-06T09:31:30.732Z,190
2016-12-06T09:32:30.998Z,170
2016-12-06T09:33:30.664Z,125
2016-12-06T09:34:30.639Z,110
2016-12-06T09:35:30.930Z,110
2016-12-06T09:36:30.598Z,110
2016-12-06T09:37:30.898Z,110
2016-12-06T09:38:30.554Z,110
2016-12-06T09:39:31.154Z,110
2016-12-06T09:40:30.514Z,120
2016-12-06T09:41:30.800Z,180
2016-12-06T09:42:30.770Z,235
2016-12-06T09:43:30.754Z,215
2016-12-06T09:44:30.471Z,200
2016-12-06T09:45:30.405Z,190
2016-12-06T09:46:30.414Z,185
2016-12-06T09:47:30.351Z,215
2016-12-06T09:48:30.334Z,220
2016-12-06T09:49:30.332Z,230
2016-12-06T09:50:30.344Z,275
2016-12-06T09:51:30.286Z,280
2016-12-06T09:52:30.574Z,275
2016-12-06T09:53:30.546Z,270
2016-12-06T09:54:30.232Z,285
2016-12-06T09:55:30.198Z,290
2016-12-06T09:56:30.167Z,255
2016-12-06T09:57:30.462Z,220
2016-12-06T09:58:30.139Z,240
2016-12-06T09:59:30.420Z,255
2016-12-06T10:00:30.104Z,240
2016-12-06T10:01:30.393Z,245
2016-12-06T10:02:30.085Z,260
2016-12-06T10:03:30.039Z,295
2016-12-06T10:04:30.033Z,295
2016-12-06T10:05:30.054Z,285
2016-12-06T10:06:30.515Z,290
2016-12-06T10:07:29.973Z,275
2016-12-06T10:08:29.962Z,245
2016-12-06T10:09:30.301Z,250
2016-12-06T10:10:29.939Z,260
2016-12-06T10:11:30.288Z,255
2016-12-06T10:12:29.912Z,255
2016-12-06T10:13:29.877Z,240
2016-12-06T10:14:29.865Z,220
2016-12-06T10:15:30.522Z,195
2016-12-06T10:16:29.829Z,185
2016-12-06T10:17:29.816Z,195
2016-12-06T10:18:30.148Z,240
2016-12-06T10:19:29.786Z,290
2016-12-06T10:20:29.774Z,335
2016-12-06T10:21:29.755Z,335
2016-12-06T10:22:30.053Z,320
2016-12-06T10:23:30.047Z,305
2016-12-06T10:24:29.717Z,260
2016-12-06T10:25:30.019Z,235
2016-12-06T10:26:29.680Z,250
2016-12-06T10:27:29.987Z,240
2016-12-06T10:28:29.653Z,230
2016-12-06T10:29:29.645Z,235
2016-12-06T10:30:30.311Z,215
2016-12-06T10:31:29.609Z,220
2016-12-06T10:32:29.938Z,225
2016-12-06T10:33:29.579Z,260
2016-12-06T10:34:29.572Z,275
2016-12-06T10:35:29.549Z,250
2016-12-06T10:36:29.572Z,200
2016-12-06T10:37:29.532Z,215
2016-12-06T10:38:29.542Z,290
2016-12-06T10:39:29.812Z,275
2016-12-06T10:40:29.799Z,280
2016-12-06T10:41:29.836Z,255
2016-12-06T10:42:29.464Z,195
2016-12-06T10:43:29.783Z,220
2016-12-06T10:44:29.453Z,235
2016-12-06T10:45:29.420Z,265
2016-12-06T10:46:30.034Z,280
2016-12-06T10:47:29.391Z,290
2016-12-06T10:48:29.381Z,305
2016-12-06T10:49:29.370Z,345
2016-12-06T10:50:29.353Z,340
2016-12-06T10:51:29.348Z,375
2016-12-06T10:52:29.332Z,380
2016-12-06T10:53:29.626Z,330
2016-12-06T10:54:29.926Z,335
2016-12-06T10:55:29.294Z,350
2016-12-06T10:56:29.282Z,350
2016-12-06T10:57:29.268Z,345
2016-12-06T10:58:29.253Z,310
2016-12-06T10:59:29.241Z,260
2016-12-06T11:00:29.320Z,255
2016-12-06T11:01:29.265Z,300
2016-12-06T11:02:29.571Z,285
2016-12-06T11:03:29.513Z,260
2016-12-06T11:04:29.502Z,250
2016-12-06T11:05:29.486Z,265
2016-12-06T11:06:29.477Z,315
2016-12-06T11:07:29.469Z,345
2016-12-06T11:08:29.141Z,360
2016-12-06T11:09:29.479Z,365
2016-12-06T11:10:29.439Z,335
2016-12-06T11:11:29.104Z,355
2016-12-06T11:12:29.411Z,335
2016-12-06T11:13:29.089Z,265
2016-12-06T11:14:29.386Z,280
2016-12-06T11:15:29.067Z,305
2016-12-06T11:16:29.055Z,310
2016-12-06T11:17:29.041Z,300
2016-12-06T11:18:29.035Z,260
2016-12-06T11:19:29.022Z,210
2016-12-06T11:20:29.354Z,185
2016-12-06T11:21:29.316Z,170
2016-12-06T11:22:28.998Z,160
2016-12-06T11:23:28.980Z,155
2016-12-06T11:24:28.970Z,145
2016-12-06T11:25:28.953Z,140
2016-12-06T11:26:28.953Z,135
2016-12-06T11:27:28.967Z,135
2016-12-06T11:28:28.973Z,130
2016-12-06T11:29:28.916Z,130
2016-12-06T11:30:28.913Z,130
2016-12-06T11:31:28.895Z,130
2016-12-06T11:32:28.882Z,130
2016-12-06T11:33:28.864Z,130
2016-12-06T11:34:28.852Z,130
2016-12-06T11:35:28.848Z,130
2016-12-06T11:36:29.143Z,130
2016-12-06T11:37:28.817Z,130
2016-12-06T11:38:28.805Z,130
2016-12-06T11:39:28.796Z,130
2016-12-06T11:40:28.775Z,130
2016-12-06T11:41:28.804Z,130
2016-12-06T11:42:28.745Z,130
2016-12-06T11:43:28.773Z,130
2016-12-06T11:44:28.712Z,130
2016-12-06T11:45:29.390Z,130
2016-12-06T11:46:29.006Z,130
2016-12-06T11:47:28.985Z,130
2016-12-06T11:48:28.968Z,130
2016-12-06T11:49:28.641Z,130
2016-12-06T11:50:28.630Z,135
2016-12-06T11:51:28.614Z,135
2016-12-06T11:52:28.612Z,135
2016-12-06T11:53:28.583Z,140
2016-12-06T11:54:28.601Z,140
2016-12-06T11:55:28.557Z,145
2016-12-06T11:56:28.536Z,145
2016-12-06T11:57:28.519Z,150
2016-12-06T11:58:28.500Z,155
2016-12-06T11:59:28.487Z,160
2016-12-06T12:00:28.785Z,165
2016-12-06T12:01:28.458Z,175
2016-12-06T12:02:28.451Z,185
2016-12-06T12:03:28.745Z,195
2016-12-06T12:04:28.406Z,220
2016-12-06T12:05:28.389Z,285
2016-12-06T12:06:28.591Z,330
2016-12-06T12:07:28.365Z,330
2016-12-06T12:08:28.343Z,335
2016-12-06T12:09:28.651Z,340
2016-12-06T12:10:28.321Z,345
2016-12-06T12:11:28.359Z,350
2016-12-06T12:12:28.309Z,350
2016-12-06T12:13:28.336Z,345
2016-12-06T12:14:28.285Z,340
2016-12-06T12:15:28.578Z,340
2016-12-06T12:16:28.247Z,335
2016-12-06T12:17:28.224Z,330
2016-12-06T12:18:28.212Z,330
2016-12-06T12:19:28.527Z,335
2016-12-06T12:20:28.510Z,325
2016-12-06T12:21:28.496Z,325
2016-12-06T12:22:28.175Z,325
2016-12-06T12:23:28.166Z,320
2016-12-06T12:24:28.158Z,325
2016-12-06T12:25:28.460Z,325
2016-12-06T12:26:28.458Z,330
2016-12-06T12:27:28.124Z,325
2016-12-06T12:28:28.152Z,325
2016-12-06T12:29:28.426Z,325
2016-12-06T12:30:28.101Z,330
2016-12-06T12:31:28.407Z,325
2016-12-06T12:32:28.093Z,325
2016-12-06T12:33:28.077Z,320
2016-12-06T12:34:28.072Z,320
2016-12-06T12:35:28.067Z,320
2016-12-06T12:36:28.055Z,315
2016-12-06T12:37:28.053Z,315
2016-12-06T12:38:28.052Z,310
2016-12-06T12:39:28.039Z,305
2016-12-06T12:40:28.036Z,305
2016-12-06T12:41:28.340Z,305
2016-12-06T12:42:28.066Z,305
2016-12-06T12:43:28.016Z,305
2016-12-06T12:44:28.325Z,305
2016-12-06T12:45:28.318Z,300
2016-12-06T12:46:27.995Z,295
2016-12-06T12:47:28.009Z,290
2016-12-06T12:48:28.006Z,290
2016-12-06T12:49:28.284Z,290
2016-12-06T12:50:28.291Z,285
2016-12-06T12:51:28.014Z,285
2016-12-06T12:52:28.327Z,290
2016-12-06T12:53:27.958Z,285
2016-12-06T12:54:28.002Z,280
2016-12-06T12:55:27.944Z,280
2016-12-06T12:56:27.967Z,275
2016-12-06T12:57:28.254Z,275
2016-12-06T12:58:27.947Z,270
2016-12-06T12:59:28.258Z,270
2016-12-06T13:00:27.932Z,265
2016-12-06T13:01:27.920Z,265
2016-12-06T13:02:28.226Z,260
2016-12-06T13:03:27.909Z,260
2016-12-06T13:04:27.906Z,260
2016-12-06T13:05:27.891Z,255
2016-12-06T13:06:28.226Z,255
2016-12-06T13:07:28.206Z,250
2016-12-06T13:08:28.201Z,250
2016-12-06T13:09:28.188Z,250
2016-12-06T13:10:27.874Z,250
2016-12-06T13:11:28.181Z,245
2016-12-06T13:12:27.870Z,240
2016-12-06T13:13:27.856Z,245
2016-12-06T13:14:27.906Z,240
2016-12-06T13:15:28.479Z,235
2016-12-06T13:16:27.850Z,235
2016-12-06T13:17:27.840Z,230
2016-12-06T13:18:27.918Z,225
2016-12-06T13:19:27.844Z,225
2016-12-06T13:20:27.821Z,220
2016-12-06T13:21:28.764Z,215
2016-12-06T13:22:27.822Z,215
2016-12-06T13:23:28.126Z,215
2016-12-06T13:24:27.812Z,210
2016-12-06T13:25:27.810Z,210
2016-12-06T13:26:28.118Z,210
2016-12-06T13:27:28.153Z,210
2016-12-06T13:28:28.422Z,205
2016-12-06T13:29:27.782Z,200
2016-12-06T13:30:27.790Z,205
2016-12-06T13:31:28.093Z,195
2016-12-06T13:32:28.080Z,195
2016-12-06T13:33:28.084Z,195
2016-12-06T13:34:27.757Z,190
2016-12-06T13:35:28.375Z,190
2016-12-06T13:36:28.378Z,180
2016-12-06T13:37:27.738Z,180
2016-12-06T13:38:27.732Z,175
2016-12-06T13:39:28.040Z,170
2016-12-06T13:40:27.731Z,150
2016-12-06T13:41:27.767Z,125
2016-12-06T13:42:27.715Z,100
2016-12-06T13:43:28.335Z,95
2016-12-06T13:44:27.697Z,90
2016-12-06T13:45:27.702Z,90
2016-12-06T13:46:27.687Z,85
2016-12-06T13:47:27.682Z,80
2016-12-06T13:48:27.678Z,80
2016-12-06T13:49:27.666Z,80
2016-12-06T13:50:28.022Z,80
2016-12-06T13:51:27.658Z,85
2016-12-06T13:52:27.954Z,80
2016-12-06T13:53:27.631Z,80
2016-12-06T13:54:27.946Z,80
2016-12-06T13:55:28.242Z,80
2016-12-06T13:56:27.628Z,80
2016-12-06T13:57:27.605Z,75
2016-12-06T13:58:27.585Z,75
2016-12-06T13:59:27.914Z,75
2016-12-06T14:00:27.909Z,75
2016-12-06T14:01:27.912Z,75
2016-12-06T14:02:27.569Z,75
2016-12-06T14:03:28.183Z,75
2016-12-06T14:04:28.163Z,70
2016-12-06T14:05:28.174Z,70
2016-12-06T14:06:28.044Z,70
2016-12-06T14:07:27.736Z,70
2016-12-06T14:08:27.498Z,70
2016-12-06T14:09:27.781Z,70
2016-12-06T14:10:27.800Z,65
2016-12-06T14:11:27.446Z,65
2016-12-06T14:12:27.444Z,65
2016-12-06T14:13:27.478Z,65
2016-12-06T14:14:27.467Z,60
2016-12-06T14:15:27.708Z,60
2016-12-06T14:16:28.063Z,60
2016-12-06T14:17:27.387Z,60
2016-12-06T14:18:27.677Z,60
2016-12-06T14:19:27.663Z,55
2016-12-06T14:20:27.652Z,55
2016-12-06T14:21:27.971Z,55
2016-12-06T14:22:27.936Z,55